createdAt,value
2023-04-11T00:00:59.021Z,76.43
2023-04-11T00:03:27.570Z,74.97
2023-04-11T00:05:55.733Z,75.02
2023-04-11T00:08:23.528Z,73.83
2023-04-11T00:10:51.352Z,74.53
2023-04-11T00:13:20.600Z,74.65
2023-04-11T00:15:48.795Z,74.48
2023-04-11T00:18:18.406Z,74.18
2023-04-11T00:20:46.179Z,73.65
2023-04-11T00:23:14.179Z,73.29
2023-04-11T00:25:42.101Z,72.60
2023-04-11T00:28:11.473Z,72.94
2023-04-11T00:30:39.663Z,72.33
2023-04-11T00:33:07.471Z,72.95
2023-04-11T00:35:37.972Z,71.88
2023-04-11T00:38:05.877Z,73.67
2023-04-11T00:40:33.667Z,73.24
2023-04-11T00:43:01.662Z,73.08
2023-04-11T00:45:29.504Z,73.62
2023-04-11T00:47:58.062Z,73.65
2023-04-11T00:50:26.061Z,74.01
2023-04-11T00:52:58.412Z,74.34
2023-04-11T00:55:27.322Z,75.23
2023-04-11T00:57:55.848Z,75.67
2023-04-11T01:00:24.723Z,76.11
2023-04-11T01:02:52.728Z,76.48
2023-04-11T01:05:22.403Z,76.52
2023-04-11T01:07:55.744Z,77.18
2023-04-11T01:10:28.814Z,76.97
2023-04-11T01:12:58.495Z,77.24
2023-04-11T01:15:26.613Z,77.69
2023-04-11T01:17:55.455Z,77.10
2023-04-11T01:20:23.770Z,79.19
2023-04-11T01:22:52.426Z,78.24
2023-04-11T01:25:22.613Z,77.81
2023-04-11T01:27:50.589Z,78.42
2023-04-11T01:30:18.425Z,77.88
2023-04-11T01:32:46.316Z,78.60
2023-04-11T01:35:14.473Z,79.23
2023-04-11T01:37:42.444Z,78.72
2023-04-11T01:40:11.155Z,78.90
2023-04-11T01:42:40.781Z,79.25
2023-04-11T01:45:13.042Z,79.84
2023-04-11T01:47:41.141Z,79.33
2023-04-11T01:50:10.156Z,79.64
2023-04-11T01:52:37.886Z,78.98
2023-04-11T01:55:07.292Z,79.05
2023-04-11T01:57:35.153Z,79.16
2023-04-11T02:00:06.002Z,79.00
2023-04-11T02:02:33.993Z,79.10
2023-04-11T02:05:02.058Z,79.95
2023-04-11T02:07:29.886Z,79.60
2023-04-11T02:09:59.317Z,79.54
2023-04-11T02:12:27.483Z,79.48
2023-04-11T02:14:55.370Z,79.62
2023-04-11T02:17:26.483Z,79.95
2023-04-11T02:19:54.639Z,81.09
2023-04-11T02:22:22.440Z,80.31
2023-04-11T02:24:51.241Z,80.65
2023-04-11T02:27:19.077Z,80.04
2023-04-11T02:29:46.852Z,81.68
2023-04-11T02:32:15.095Z,80.83
2023-04-11T02:34:44.342Z,81.64
2023-04-11T02:37:12.234Z,80.64
2023-04-11T02:39:40.110Z,81.29
2023-04-11T02:42:07.864Z,80.86
2023-04-11T02:44:36.404Z,80.54
2023-04-11T02:47:04.250Z,80.34
2023-04-11T02:49:32.241Z,80.42
2023-04-11T02:52:01.360Z,79.12
2023-04-11T02:54:29.172Z,78.18
2023-04-11T02:56:56.915Z,77.78
2023-04-11T02:59:24.839Z,78.72
2023-04-11T03:01:59.179Z,78.18
2023-04-11T03:04:27.915Z,77.90
2023-04-11T03:06:56.563Z,77.62
2023-04-11T03:09:26.380Z,76.77
2023-04-11T03:11:54.223Z,76.64
2023-04-11T03:14:22.074Z,77.14
2023-04-11T03:16:49.950Z,76.13
2023-04-11T03:19:17.691Z,77.35
2023-04-11T03:21:45.525Z,76.21
2023-04-11T03:24:13.542Z,76.34
2023-04-11T03:26:42.713Z,75.43
2023-04-11T03:29:10.510Z,74.95
2023-04-11T03:31:38.379Z,74.66
2023-04-11T03:34:07.392Z,76.70
2023-04-11T03:36:35.472Z,74.72
2023-04-11T03:39:04.026Z,75.47
2023-04-11T03:41:31.823Z,73.84
2023-04-11T03:44:00.934Z,74.84
2023-04-11T03:46:28.808Z,75.55
2023-04-11T03:48:57.136Z,75.13
2023-04-11T03:51:26.543Z,74.56
2023-04-11T03:53:54.525Z,75.10
2023-04-11T03:56:22.363Z,74.49
2023-04-11T03:58:50.364Z,74.14
2023-04-11T04:01:19.520Z,73.88
2023-04-11T04:03:48.993Z,73.85
2023-04-11T04:06:16.945Z,73.54
2023-04-11T04:08:44.743Z,74.27
2023-04-11T04:11:13.943Z,74.73
2023-04-11T04:13:41.845Z,73.32
2023-04-11T04:16:10.595Z,73.10
2023-04-11T04:18:39.850Z,73.37
2023-04-11T04:21:08.591Z,74.01
2023-04-11T04:23:39.101Z,73.90
2023-04-11T04:26:07.547Z,73.81
2023-04-11T04:28:36.992Z,74.17
2023-04-11T04:31:05.435Z,73.70
2023-04-11T04:33:33.365Z,74.30
2023-04-11T04:36:04.186Z,74.47
2023-04-11T04:38:32.953Z,73.86
2023-04-11T04:41:00.741Z,74.61
2023-04-11T04:43:32.340Z,74.35
2023-04-11T04:46:00.343Z,73.70
2023-04-11T04:48:28.191Z,74.15
2023-04-11T04:50:56.072Z,74.82
2023-04-11T04:53:25.339Z,74.67
2023-04-11T04:55:53.390Z,73.87
2023-04-11T04:58:21.153Z,73.63
2023-04-11T05:00:55.853Z,73.98
2023-04-11T05:03:24.204Z,75.19
2023-04-11T05:05:52.198Z,74.96
2023-04-11T05:08:21.533Z,74.28
2023-04-11T05:10:50.741Z,73.82
2023-04-11T05:13:18.791Z,74.03
2023-04-11T05:15:49.335Z,73.70
2023-04-11T05:18:17.493Z,73.63
2023-04-11T05:20:45.442Z,73.31
2023-04-11T05:23:13.349Z,73.47
2023-04-11T05:25:41.286Z,73.94
2023-04-11T05:28:10.472Z,73.63
2023-04-11T05:30:38.255Z,74.68
2023-04-11T05:33:06.194Z,73.24
2023-04-11T05:35:34.663Z,73.56
2023-04-11T05:38:02.526Z,73.60
2023-04-11T05:40:30.335Z,72.02
2023-04-11T05:42:58.194Z,73.49
2023-04-11T05:45:27.417Z,73.17
2023-04-11T05:47:56.618Z,72.42
2023-04-11T05:50:25.119Z,73.94
2023-04-11T05:52:52.996Z,73.58
2023-04-11T05:55:20.843Z,72.38
2023-04-11T05:57:48.677Z,72.94
2023-04-11T06:00:18.301Z,71.74
2023-04-11T06:02:49.219Z,70.66
2023-04-11T06:05:17.908Z,71.35
2023-04-11T06:07:46.614Z,71.15
2023-04-11T06:10:14.888Z,72.22
2023-04-11T06:12:42.759Z,70.88
2023-04-11T06:15:13.784Z,70.88
2023-04-11T06:17:41.850Z,71.56
2023-04-11T06:20:11.920Z,70.95
2023-04-11T06:22:40.108Z,70.78
2023-04-11T06:25:09.996Z,71.05
2023-04-11T06:27:38.086Z,70.90
2023-04-11T06:30:08.906Z,71.40
2023-04-11T06:32:36.740Z,70.37
2023-04-11T06:35:05.297Z,70.28
2023-04-11T06:37:34.581Z,70.39
2023-04-11T06:40:02.494Z,69.34
2023-04-11T06:42:30.546Z,69.43
2023-04-11T06:44:58.432Z,69.36
2023-04-11T06:47:26.667Z,69.11
2023-04-11T06:49:55.513Z,69.60
2023-04-11T06:52:25.787Z,68.65
2023-04-11T06:54:56.182Z,65.84
2023-04-11T06:57:24.265Z,66.73
2023-04-11T06:59:52.586Z,66.54
2023-04-11T07:02:21.989Z,66.45
2023-04-11T07:04:50.060Z,67.12
2023-04-11T07:07:17.991Z,67.46
2023-04-11T07:09:47.140Z,67.25
2023-04-11T07:12:16.763Z,67.52
2023-04-11T07:14:45.146Z,66.05
2023-04-11T07:17:13.224Z,63.79
2023-04-11T07:19:41.549Z,63.28
2023-04-11T07:22:11.040Z,59.53
2023-04-11T07:24:38.951Z,59.20
2023-04-11T07:27:06.984Z,59.31
2023-04-11T07:29:37.187Z,57.85
2023-04-11T07:32:06.333Z,57.67
2023-04-11T07:34:35.396Z,56.67
2023-04-11T07:37:03.657Z,56.05
2023-04-11T07:39:31.679Z,55.83
2023-04-11T07:41:59.569Z,53.83
2023-04-11T07:44:27.476Z,54.87
2023-04-11T07:46:57.344Z,55.94
2023-04-11T07:49:25.291Z,57.11
2023-04-11T07:51:53.013Z,56.97
2023-04-11T07:54:21.071Z,55.01
2023-04-11T07:56:48.869Z,55.20
2023-04-11T07:59:17.483Z,55.25
2023-04-11T08:01:45.604Z,54.00
2023-04-11T08:04:15.320Z,53.58
2023-04-11T08:06:43.840Z,51.90
2023-04-11T08:09:11.575Z,53.00
2023-04-11T08:11:40.864Z,54.49
2023-04-11T08:14:09.179Z,53.74
2023-04-11T08:16:37.183Z,54.70
2023-04-11T08:19:05.124Z,55.55
2023-04-11T08:21:34.527Z,55.82
2023-04-11T08:24:02.320Z,54.32
2023-04-11T08:26:30.298Z,54.79
2023-04-11T08:28:58.093Z,55.30
2023-04-11T08:31:26.896Z,52.98
2023-04-11T08:33:56.185Z,51.47
2023-04-11T08:36:25.703Z,50.24
2023-04-11T08:38:56.697Z,51.71
2023-04-11T08:41:24.938Z,50.64
2023-04-11T08:43:53.327Z,50.58
2023-04-11T08:46:21.296Z,51.08
2023-04-11T08:48:49.480Z,51.74
2023-04-11T08:51:23.972Z,52.60
2023-04-11T08:53:59.693Z,52.07
2023-04-11T08:56:27.930Z,52.35
2023-04-11T08:58:55.843Z,52.11
2023-04-11T09:01:29.638Z,52.45
2023-04-11T09:03:58.057Z,49.49
2023-04-11T09:06:30.615Z,48.93
2023-04-11T09:09:02.254Z,47.28
2023-04-11T09:11:30.150Z,48.93
2023-04-11T09:14:08.420Z,46.80
2023-04-11T09:16:37.001Z,47.67
2023-04-11T09:19:04.989Z,45.31
2023-04-11T09:21:49.111Z,41.37
2023-04-11T09:24:19.778Z,42.97
2023-04-11T09:26:47.621Z,42.82
2023-04-11T09:29:37.886Z,41.63
2023-04-11T09:32:06.176Z,41.97
2023-04-11T09:34:39.137Z,41.91
2023-04-11T09:37:08.556Z,42.37
2023-04-11T09:39:37.756Z,43.20
2023-04-11T09:42:25.480Z,44.19
2023-04-11T09:44:54.190Z,46.26
2023-04-11T09:47:22.712Z,45.38
2023-04-11T09:49:52.815Z,43.32
2023-04-11T09:52:21.748Z,42.96
2023-04-11T09:54:52.809Z,42.40
2023-04-11T09:57:24.224Z,44.49
2023-04-11T09:59:54.428Z,45.35
2023-04-11T10:02:22.308Z,45.99
2023-04-11T10:04:51.525Z,45.71
2023-04-11T10:07:21.403Z,44.33
2023-04-11T10:09:51.869Z,42.36
2023-04-11T10:12:32.602Z,39.41
2023-04-11T10:15:08.582Z,39.96
2023-04-11T10:17:37.483Z,37.56
2023-04-11T10:20:46.854Z,36.02
2023-04-11T10:23:16.492Z,37.46
2023-04-11T10:26:10.614Z,36.27
2023-04-11T10:28:40.619Z,35.56
2023-04-11T10:31:13.519Z,36.28
2023-04-11T10:34:12.691Z,37.52
2023-04-11T10:37:04.646Z,37.72
2023-04-11T10:40:09.819Z,38.69
2023-04-11T10:42:43.479Z,39.49
2023-04-11T10:45:28.991Z,38.35
2023-04-11T10:48:07.604Z,37.78
2023-04-11T10:50:40.931Z,36.45
2023-04-11T10:53:14.220Z,37.35
2023-04-11T10:55:48.719Z,35.28
2023-04-11T10:58:21.641Z,36.07
2023-04-11T11:01:31.213Z,36.39
2023-04-11T11:04:01.031Z,37.49
2023-04-11T11:06:29.144Z,36.71
2023-04-11T11:08:57.887Z,37.22
2023-04-11T11:11:25.685Z,38.35
2023-04-11T11:13:57.141Z,37.81
2023-04-11T11:16:27.186Z,37.34
2023-04-11T11:18:59.098Z,36.16
2023-04-11T11:24:24.804Z,36.18
2023-04-11T11:26:54.613Z,36.72
2023-04-11T11:29:33.862Z,37.72
2023-04-11T11:32:04.170Z,36.55
2023-04-11T11:34:34.333Z,36.01
2023-04-11T11:37:05.287Z,35.92
2023-04-11T11:39:35.353Z,35.56
2023-04-11T11:42:03.514Z,36.13
2023-04-11T11:44:32.995Z,34.31
2023-04-11T11:47:06.221Z,35.20
2023-04-11T11:49:48.856Z,33.85
2023-04-11T11:52:33.813Z,33.38
2023-04-11T11:55:03.212Z,33.41
2023-04-11T11:57:31.220Z,34.85
2023-04-11T12:00:06.473Z,34.84
2023-04-11T12:02:36.618Z,35.31
2023-04-11T12:05:07.877Z,34.06
2023-04-11T12:07:39.538Z,34.24
2023-04-11T12:10:11.838Z,35.85
2023-04-11T12:12:42.067Z,35.17
2023-04-11T12:15:14.762Z,36.62
2023-04-11T12:17:43.259Z,35.70
2023-04-11T12:20:11.969Z,36.25
2023-04-11T12:22:40.404Z,34.79
2023-04-11T12:25:10.307Z,34.67
2023-04-11T12:27:39.960Z,34.47
2023-04-11T12:30:09.579Z,35.34
2023-04-11T12:32:39.566Z,35.51
2023-04-11T12:35:08.826Z,34.57
2023-04-11T12:37:36.716Z,34.61
2023-04-11T12:40:11.013Z,34.00
2023-04-11T12:42:49.534Z,33.14
2023-04-11T12:45:24.627Z,33.68
2023-04-11T12:47:54.408Z,32.61
2023-04-11T12:50:24.106Z,33.51
2023-04-11T12:52:52.445Z,32.64
2023-04-11T12:55:22.448Z,31.71
2023-04-11T12:57:50.337Z,33.18
2023-04-11T13:00:20.423Z,33.94
2023-04-11T13:02:48.689Z,32.88
2023-04-11T13:05:18.644Z,32.69
2023-04-11T13:07:47.036Z,31.36
2023-04-11T13:10:18.552Z,31.92
2023-04-11T13:12:48.477Z,30.99
2023-04-11T13:15:17.580Z,31.52
2023-04-11T13:17:45.667Z,32.64
2023-04-11T13:20:14.348Z,29.47
2023-04-11T13:22:44.286Z,29.05
2023-04-11T13:25:12.961Z,28.26
2023-04-11T13:27:42.448Z,28.43
2023-04-11T13:30:11.826Z,28.69
2023-04-11T13:32:40.130Z,28.92
2023-04-11T13:35:09.629Z,28.95
2023-04-11T13:37:37.484Z,28.33
2023-04-11T13:40:11.124Z,27.45
2023-04-11T13:42:38.905Z,26.76
2023-04-11T13:45:08.090Z,26.22
2023-04-11T13:47:38.380Z,27.02
2023-04-11T13:50:09.514Z,26.46
2023-04-11T13:52:37.480Z,27.87
2023-04-11T13:55:07.747Z,27.99
2023-04-11T13:57:36.135Z,29.55
2023-04-11T14:00:12.100Z,30.40
2023-04-11T14:02:41.123Z,30.40
2023-04-11T14:05:11.686Z,30.00
2023-04-11T14:07:39.512Z,29.89
2023-04-11T14:10:09.938Z,29.74
2023-04-11T14:12:42.432Z,30.31
2023-04-11T14:15:12.208Z,29.70
2023-04-11T14:17:40.120Z,30.44
2023-04-11T14:20:09.679Z,31.88
2023-04-11T14:22:38.558Z,30.46
2023-04-11T14:25:11.512Z,30.15
2023-04-11T14:27:42.070Z,30.31
2023-04-11T14:30:12.095Z,30.14
2023-04-11T14:32:39.998Z,31.13
2023-04-11T14:35:09.921Z,30.91
2023-04-11T14:37:38.519Z,30.22
2023-04-11T14:40:11.236Z,29.97
2023-04-11T14:42:40.938Z,30.82
2023-04-11T14:45:09.768Z,31.11
2023-04-11T14:47:39.731Z,29.47
2023-04-11T14:50:09.523Z,29.77
2023-04-11T14:52:37.400Z,30.52
2023-04-11T14:55:06.401Z,30.49
2023-04-11T14:57:47.026Z,31.24
2023-04-11T15:00:20.889Z,30.46
2023-04-11T15:02:52.478Z,31.76
2023-04-11T15:05:21.147Z,32.63
2023-04-11T15:07:51.722Z,32.35
2023-04-11T15:10:22.349Z,31.83
2023-04-11T15:12:51.704Z,31.10
2023-04-11T15:15:19.599Z,32.35
2023-04-11T15:17:49.679Z,33.82
2023-04-11T15:20:19.788Z,34.17
2023-04-11T15:22:48.741Z,31.84
2023-04-11T15:25:17.228Z,30.85
2023-04-11T15:27:45.275Z,32.21
2023-04-11T15:30:15.269Z,32.50
2023-04-11T15:32:45.005Z,33.07
2023-04-11T15:35:13.166Z,34.10
2023-04-11T15:37:41.498Z,34.27
2023-04-11T15:40:12.281Z,34.24
2023-04-11T15:42:40.625Z,33.53
2023-04-11T15:45:09.643Z,32.94
2023-04-11T15:47:39.121Z,33.11
2023-04-11T15:50:08.226Z,32.83
2023-04-11T15:52:36.195Z,32.77
2023-04-11T15:55:04.748Z,33.60
2023-04-11T15:57:33.318Z,33.39
2023-04-11T16:00:01.521Z,34.02
2023-04-11T16:02:29.668Z,33.83
2023-04-11T16:05:01.306Z,33.73
2023-04-11T16:07:30.057Z,34.08
2023-04-11T16:09:58.187Z,34.22
2023-04-11T16:12:26.186Z,34.58
2023-04-11T16:14:54.033Z,33.78
2023-04-11T16:17:21.823Z,33.99
2023-04-11T16:19:53.324Z,34.57
2023-04-11T16:22:22.532Z,34.68
2023-04-11T16:24:50.730Z,35.30
2023-04-11T16:27:19.696Z,34.43
2023-04-11T16:29:47.651Z,34.39
2023-04-11T16:32:15.563Z,34.61
2023-04-11T16:34:43.412Z,34.34
2023-04-11T16:37:11.210Z,34.58
2023-04-11T16:39:40.415Z,34.38
2023-04-11T16:42:08.330Z,34.85
2023-04-11T16:44:36.435Z,36.79
2023-04-11T16:47:04.602Z,36.10
2023-04-11T16:49:32.699Z,36.44
2023-04-11T16:52:00.717Z,36.77
2023-04-11T16:54:28.505Z,36.01
2023-04-11T16:56:57.708Z,36.01
2023-04-11T16:59:25.548Z,36.85
2023-04-11T17:01:53.545Z,36.91
2023-04-11T17:04:21.524Z,37.36
2023-04-11T17:06:49.582Z,37.38
2023-04-11T17:09:17.569Z,37.17
2023-04-11T17:11:45.316Z,36.91
2023-04-11T17:14:14.527Z,36.79
2023-04-11T17:16:43.432Z,37.41
2023-04-11T17:19:11.413Z,37.44
2023-04-11T17:21:40.048Z,36.83
2023-04-11T17:24:08.404Z,35.56
2023-04-11T17:26:36.258Z,35.28
2023-04-11T17:29:06.559Z,36.13
2023-04-11T17:31:36.125Z,35.88
2023-04-11T17:34:04.441Z,35.87
2023-04-11T17:36:32.410Z,35.13
2023-04-11T17:39:00.250Z,35.95
2023-04-11T17:41:28.376Z,35.89
2023-04-11T17:43:57.385Z,37.29
2023-04-11T17:46:26.003Z,36.42
2023-04-11T17:48:55.460Z,36.96
2023-04-11T17:51:23.246Z,38.53
2023-04-11T17:53:51.116Z,37.97
2023-04-11T17:56:19.992Z,38.53
2023-04-11T17:58:48.275Z,39.31
2023-04-11T18:01:16.211Z,38.44
2023-04-11T18:03:44.370Z,38.51
2023-04-11T18:06:13.615Z,38.34
2023-04-11T18:11:12.143Z,38.90
2023-04-11T18:13:39.938Z,40.04
2023-04-11T18:16:08.131Z,39.51
2023-04-11T18:18:36.759Z,39.37
2023-04-11T18:21:07.550Z,39.56
2023-04-11T18:23:37.164Z,40.90
2023-04-11T18:26:05.162Z,40.27
2023-04-11T18:28:33.011Z,39.74
2023-04-11T18:31:01.488Z,40.11
2023-04-11T18:33:29.474Z,39.75
2023-04-11T18:36:02.923Z,40.64
2023-04-11T18:38:31.091Z,39.90
2023-04-11T18:41:04.533Z,40.05
2023-04-11T18:43:34.932Z,39.96
2023-04-11T18:46:02.725Z,40.32
2023-04-11T18:48:31.618Z,40.20
2023-04-11T18:51:00.918Z,40.21
2023-04-11T18:53:30.038Z,39.51
2023-04-11T18:55:58.065Z,39.54
2023-04-11T18:58:30.092Z,39.55
2023-04-11T19:00:58.678Z,39.65
2023-04-11T19:03:26.877Z,40.74
2023-04-11T19:05:55.429Z,40.44
2023-04-11T19:08:23.583Z,41.53
2023-04-11T19:10:52.322Z,41.22
2023-04-11T19:13:20.130Z,40.70
2023-04-11T19:15:49.380Z,41.22
2023-04-11T19:18:19.424Z,41.18
2023-04-11T19:20:47.254Z,40.97
2023-04-11T19:23:15.733Z,41.48
2023-04-11T19:25:43.871Z,41.53
2023-04-11T19:28:11.718Z,40.82
2023-04-11T19:30:40.659Z,41.82
2023-04-11T19:33:09.941Z,41.96
2023-04-11T19:35:40.210Z,41.27
2023-04-11T19:38:08.040Z,41.40
2023-04-11T19:40:36.415Z,41.70
2023-04-11T19:43:04.523Z,41.80
2023-04-11T19:45:32.753Z,42.59
2023-04-11T19:48:00.785Z,42.97
2023-04-11T19:50:30.932Z,42.93
2023-04-11T19:53:01.327Z,43.07
2023-04-11T19:55:29.234Z,43.37
2023-04-11T19:58:00.395Z,43.28
2023-04-11T20:00:31.984Z,43.15
2023-04-11T20:02:59.931Z,43.58
2023-04-11T20:05:31.918Z,43.02
2023-04-11T20:07:59.897Z,43.75
2023-04-11T20:10:29.264Z,43.71
2023-04-11T20:12:57.205Z,43.58
2023-04-11T20:15:25.489Z,44.34
2023-04-11T20:17:53.304Z,44.02
2023-04-11T20:20:22.046Z,44.13
2023-04-11T20:22:51.480Z,43.98
2023-04-11T20:25:19.922Z,44.89
2023-04-11T20:27:48.520Z,44.78
2023-04-11T20:30:17.409Z,44.72
2023-04-11T20:32:45.767Z,44.55
2023-04-11T20:35:15.474Z,44.89
2023-04-11T20:37:44.274Z,45.44
2023-04-11T20:40:15.050Z,45.19
2023-04-11T20:42:45.433Z,45.58
2023-04-11T20:45:16.194Z,45.38
2023-04-11T20:47:46.207Z,44.99
2023-04-11T20:50:15.761Z,45.56
2023-04-11T20:52:46.735Z,45.86
2023-04-11T20:55:16.160Z,45.80
2023-04-11T20:57:44.655Z,45.85
2023-04-11T21:00:14.728Z,46.74
2023-04-11T21:02:45.950Z,46.15
2023-04-11T21:05:15.296Z,47.08
2023-04-11T21:07:44.183Z,46.97
2023-04-11T21:10:13.008Z,47.01
2023-04-11T21:12:42.967Z,47.23
2023-04-11T21:15:11.828Z,47.70
2023-04-11T21:17:40.557Z,47.64
2023-04-11T21:20:17.751Z,47.88
2023-04-11T21:22:46.458Z,47.58
2023-04-11T21:25:15.971Z,47.76
2023-04-11T21:27:45.792Z,48.60
2023-04-11T21:30:15.514Z,49.33
2023-04-11T21:32:43.463Z,50.20
2023-04-11T21:35:12.773Z,49.60
2023-04-11T21:37:40.610Z,50.07
2023-04-11T21:40:09.828Z,50.94
2023-04-11T21:42:37.829Z,50.84
2023-04-11T21:45:09.435Z,50.75
2023-04-11T21:47:37.440Z,51.17
2023-04-11T21:50:05.993Z,51.67
2023-04-11T21:52:34.589Z,51.60
2023-04-11T21:55:05.396Z,50.64
2023-04-11T21:57:35.017Z,52.61
2023-04-11T22:00:03.888Z,52.16
2023-04-11T22:02:33.161Z,51.68
2023-04-11T22:05:06.367Z,51.94
2023-04-11T22:07:39.385Z,52.25
2023-04-11T22:10:12.108Z,52.64
2023-04-11T22:12:40.533Z,53.20
2023-04-11T22:15:12.618Z,53.12
2023-04-11T22:17:43.572Z,53.40
2023-04-11T22:20:13.448Z,53.75
2023-04-11T22:22:42.081Z,53.65
2023-04-11T22:25:11.533Z,53.64
2023-04-11T22:27:44.715Z,54.17
2023-04-11T22:30:15.128Z,54.61
2023-04-11T22:32:44.349Z,55.00
2023-04-11T22:35:13.624Z,55.01
2023-04-11T22:37:41.538Z,54.60
2023-04-11T22:40:13.586Z,54.51
2023-04-11T22:42:41.667Z,55.24
2023-04-11T22:45:11.156Z,54.88
2023-04-11T22:47:40.201Z,55.50
2023-04-11T22:50:10.964Z,55.69
2023-04-11T22:52:41.867Z,55.81
2023-04-11T22:55:11.823Z,56.20
2023-04-11T22:57:40.981Z,56.79
2023-04-11T23:00:12.201Z,57.21
2023-04-11T23:02:40.327Z,57.06
2023-04-11T23:05:11.019Z,57.28
2023-04-11T23:07:38.966Z,56.91
2023-04-11T23:10:08.996Z,57.47
2023-04-11T23:12:37.122Z,57.50
2023-04-11T23:15:05.870Z,57.15
2023-04-11T23:17:34.174Z,57.13
2023-04-11T23:20:06.278Z,57.27
2023-04-11T23:22:35.772Z,57.42
2023-04-11T23:25:04.620Z,57.79
2023-04-11T23:27:33.267Z,57.75
2023-04-11T23:30:01.805Z,57.69
2023-04-11T23:32:29.604Z,57.58
2023-04-11T23:34:57.496Z,58.31
2023-04-11T23:37:27.228Z,57.52
2023-04-11T23:39:57.081Z,57.10
2023-04-11T23:42:24.942Z,57.34
2023-04-11T23:44:53.131Z,57.50
2023-04-11T23:47:20.990Z,57.99
2023-04-11T23:49:48.935Z,57.99
2023-04-11T23:52:16.741Z,56.94
2023-04-11T23:54:44.690Z,57.11
2023-04-11T23:57:13.923Z,57.08
2023-04-11T23:59:41.999Z,57.51
